Airfield :
LOGIN :

Register | Disclaimer

   EN    FR    IT 

 










Legend :    VFR   Marginal VFR   IFR   Intensive IFR   Very Intensive IFR
Visi :
Ceiling :
>= 8 km
>= 3000ft
5 to 8 km
1000 to 3000 ft
1500m to 5 km
500 to 1000 ft
800 to 1500m
200 to 500 ft
< 800m
< 200 ft
Symbols :   Thunderstorms  Fog  Heavy snow  Heavy precipitations  Wind > 20 kt
SIGMETs :     Misc.  Thunderstorms  Icing  Turbulence  Mountain Waves  Volcanic Ashes







- Airport Elevation : 782 ft
- IATA code : BGY


LIME - Orio al Serio International - Bergamo

CURRENT METAR :
  • 111820Z 02005KT CAVOK 02/M05 Q1018 NOSIG

EXPIRED METARs :
  • 111750Z 01005KT CAVOK 02/M04 Q1018 NOSIG
  • 111720Z 02003KT CAVOK 05/M03 Q1018 NOSIG
  • 111650Z 07003KT 040V100 CAVOK 05/M02 Q1018 NOSIG
  • 111620Z 08004KT 050V110 CAVOK 06/M02 Q1018 NOSIG
  • 111550Z VRB01KT CAVOK 07/M03 Q1017 NOSIG

TAF TAF LIME
Valid from the 11 at 18:00 until the 12 at 18:00 UTC


111700Z 1118/1218 06005KT CAVOK
No reported NOTAMs for that airfield.
1 SIGMET reported for the Milano FIR (LIMM) :
 
Severe turbulence
LIMM SIGMET 5 VALID 111800/112100 LIIP
LIMM MILANO FIR SEV TURB FCST W OF LINE N4708 E01115 - N4324 E01342 ABV FL220 MOV E NC=



MET'MAP, your aeronautical weather chart ! - Copyright ORBIFLY December 2007 - Disclaimer

ORBIFLY MET'MAP TEAM :

Programming & Development : Alexandra Zaïnal
Concept & Development : Baudouin d'Aumeries
Co-Development & Prog : Marc-Olivier Méhu
Technical & hardware support : Manuel Goepfert

Contact : metmap@orbifly.com




SOURCES & CREDITS :

   NOAA